Tiempo atmosférico en la estación meteorológica de Olite/Erriberri, Navarra (390 m.)



Fecha
DESCASC
Temp. máxima en grados centígrados (hora)
DESCASC
Temp. mínima en grados centígrados (hora)
DESCASC
Temp. media en grados centígrados
DESCASC
Racha de viento máxima en m/sg (hora)
DESCASC
Velocidad máxima media en intervalos de 10 minutos(hora)
DESCASC
Precipitaciones diarias en mm
DESCASC
Precipitaciones de 00:00 a 06:00 en mm
DESCASC
Precipitaciones de 06:00 a 12:00 en mm
DESCASC
Precipitaciones de 12:00 a 18:00 en mm
DESCASC
Precipitaciones de 18:00 a 24:00 en mm
DESCASC
24-09-2020 23.6 (16:20) 13.1 (08:00) 18.4 13.33 (20:10) 7.5 (18:40) 0 0 0 0 0
23-09-2020 25.8 (14:20) 11.7 (00:00) 18.7 7.78 (11:10) 4.17 (16:10) 0.2 0 0 0.2 0
22-09-2020 25.1 (17:50) 12.1 (00:00) 18.6 6.39 (14:10) 3.06 (02:10) 0 0 0 0 0
21-09-2020 22.9 (16:50) 15 (00:00) 18.9 9.17 (16:40) 5 (14:40) 0 0 0 0 0
20-09-2020 24 (15:40) 12.5 (00:00) 18.3 6.39 (18:10) 3.33 (18:10) 1.7 0 0.2 0 1.5
19-09-2020 23.3 (15:10) 15.6 (00:00) 19.4 11.11 (15:40) 6.11 (05:50) 3.4 0 0 2.6 0.8
18-09-2020 25.9 (15:40) 18.9 (00:00) 22.4 14.72 (15:30) 8.89 (15:50) 0 0 0 0 0
17-09-2020 30.1 (16:20) 18.2 (00:00) 24.2 10.56 (17:40) 6.39 (15:30) 0 0 0 0 0
16-09-2020 31.6 (16:10) 15.7 (00:00) 23.7 4.17 (12:50) 2.22 (12:50) 0 0 0 0 0
15-09-2020 30.3 (16:50) 18.2 (00:00) 24.3 7.5 (13:30) 4.17 (13:30) 0 0 0 0 0
14-09-2020 31.8 (16:10) 15.3 (00:00) 23.5 9.72 (12:30) 6.11 (13:00) 0 0 0 0 0
13-09-2020 32.4 (17:40) 12.2 (00:00) 22.3 9.44 (14:00) 5.56 (14:30) 0 0 0 0 0
12-09-2020 29.7 (17:50) 13.1 (00:00) 21.4 6.67 (18:50) 3.89 (19:10) 0 0 0 0 0
11-09-2020 28.9 (16:20) 13.6 (00:00) 21.3 8.61 (16:40) 4.72 (16:40) 0 0 0 0 0
10-09-2020 27.5 (15:40) 17.1 (00:00) 22.3 11.94 (19:20) 6.11 (19:20) 0 0 0 0 0
09-09-2020 28.8 (16:10) 12.6 (00:00) 20.7 10.83 (17:00) 5.83 (18:30) 0 0 0 0 0
08-09-2020 27.1 (17:40) 8 (00:00) 17.6 8.33 (01:10) 4.17 (02:40) 0 0 0 0 0
07-09-2020 20.9 (16:20) 13.3 (08:00) 17.1 15.56 (17:40) 8.33 (17:20) 0 0 0 0 0
06-09-2020 21.4 (16:40) 15 (00:00) 18.2 13.06 (18:20) 6.67 (18:20) 0 0 0 0 0
05-09-2020 25 (13:10) 14.4 (00:00) 19.7 13.33 (17:10) 7.22 (19:50) 0 0 0 0 0
04-09-2020 31.5 (17:20) 12.2 (00:00) 21.8 8.61 (15:20) 5.56 (12:10) 0 0 0 0 0
03-09-2020 29.4 (18:00) 8.5 (00:00) 18.9 6.67 (00:50) 3.61 (00:30) 0 0 0 0 0
02-09-2020 23.9 (16:20) 12.8 (00:00) 18.3 10.83 (09:10) 5.83 (18:00) 0 0 0 0 0
01-09-2020 25.1 (16:40) 13.5 (00:00) 19.3 11.39 (19:10) 5.83 (19:10) 0 0 0 0 0
31-08-2020 24.1 (17:20) 9.5 (00:00) 16.8 8.33 (10:10) 4.72 (10:10) 0 0 0 0 0
30-08-2020 19 (18:10) 8.6 (00:00) 13.8 14.72 (14:10) 7.5 (14:10) 1.2 0.8 0.2 0.2 0
29-08-2020 21.2 (15:20) 10.5 (00:00) 15.9 13.33 (14:30) 7.78 (16:30) 4.4 0 0 0 4.4
28-08-2020 22.4 (14:10) 15.2 (00:00) 18.8 12.22 (15:10) 6.67 (13:50) 0 0 0 0 0

Gráficas

Temp. máximas Temp. mínimas Temp. medias Precipitaciones Rachas de viento máximas Velocidades máximas media en intervalos de 10 minutos

Datos horarios

Fecha y hora oficial Temperatura (ºC) Velocidad del viento (km/h) Dirección del viento Racha (km/h) Dirección de racha Precipitación (mm) Presión (hPa) Tendencia (hPa) Humedad (%)
2020-09-26 23:00:00 14.3 23 Noroeste 48 Noroeste 4 -- -- 91
2020-09-26 22:00:00 16.5 27 Noroeste 38 Noroeste 0 -- -- 72
2020-09-26 21:00:00 14.9 21 Noroeste 39 Noroeste 0 -- -- 80
2020-09-26 20:00:00 16.2 24 Noroeste 40 Oeste 0 -- -- 67
2020-09-26 19:00:00 16.7 16 Noroeste 47 Noroeste 0 -- -- 60
2020-09-26 18:00:00 17 32 Noroeste 48 Noroeste 0 -- -- 58
2020-09-26 17:00:00 17.1 28 Noroeste 43 Noroeste 0 -- -- 57
2020-09-26 16:00:00 17.2 23 Noroeste 41 Noroeste 0 -- -- 57
2020-09-26 15:00:00 16.8 24 Noroeste 44 Noroeste 0 -- -- 58
2020-09-26 14:00:00 15.7 15 Noroeste 27 Noroeste 0 -- -- 64
2020-09-26 13:00:00 14.9 19 Noroeste 36 Noroeste 0 -- -- 65
2020-09-26 12:00:00 14.2 18 Noroeste 37 Noroeste 0 -- -- 68
2020-09-26 11:00:00 13.3 19 Noroeste 40 Noroeste 0 -- -- 68
2020-09-26 10:00:00 11.9 10 Noroeste 21 Noroeste 0 -- -- 72
2020-09-26 09:00:00 10.8 13 Noroeste 22 Oeste 0 -- -- 75
2020-09-26 08:00:00 10.6 15 Noroeste 28 Noroeste 0 -- -- 73
2020-09-26 07:00:00 10.5 13 Noroeste 24 Noroeste 0 -- -- 74
2020-09-26 06:00:00 10.1 13 Noroeste 29 Noroeste 0 -- -- 80
2020-09-26 05:00:00 9.9 19 Noroeste 33 Noroeste 0 -- -- 81
2020-09-26 04:00:00 10.2 19 Noroeste 39 Noroeste 0 -- -- 78
2020-09-26 03:00:00 10.5 19 Noroeste 40 Noroeste 0 -- -- 78
2020-09-26 02:00:00 10.5 23 Noroeste 33 Oeste 0 -- -- 78
2020-09-26 01:00:00 10.4 19 Oeste 32 Oeste 0 -- -- 79
2020-09-26 00:00:00 10.3 9 Oeste 38 Oeste 0 -- -- 80
2020-09-25 23:00:00 10.6 17 Oeste 35 Noroeste 0 -- -- 73
2020-09-25 22:00:00 10.6 20 Noroeste 31 Noroeste 0 -- -- 74
2020-09-25 21:00:00 10.4 13 Noroeste 35 Noroeste 0 -- -- 78
2020-09-25 20:00:00 11.7 22 Noroeste 46 Noroeste 0 -- -- 66
2020-09-25 19:00:00 12.4 30 Noroeste 46 Noroeste 0 -- -- 65
2020-09-25 18:00:00 12.5 22 Noroeste 46 Norte 0 -- -- 67
2020-09-25 17:00:00 12.6 19 Noroeste 49 Noroeste 0 -- -- 74
2020-09-25 16:00:00 14.2 23 Noroeste 54 Noroeste 0 -- -- 57
2020-09-25 15:00:00 13.4 28 Noroeste 48 Noroeste 0 -- -- 65
2020-09-25 14:00:00 13 28 Noroeste 44 Oeste 0 -- -- 65
2020-09-25 13:00:00 10.6 20 Noroeste 38 Oeste 0 -- -- 80
2020-09-25 12:00:00 11.2 22 Noroeste 45 Noroeste 0 -- -- 71
2020-09-25 11:00:00 11.4 22 Noroeste 43 Noroeste 0 -- -- 70
2020-09-25 10:00:00 11.1 26 Noroeste 40 Noroeste 0 -- -- 67
2020-09-25 09:00:00 10.6 22 Noroeste 33 Oeste 0 -- -- 66
2020-09-25 08:00:00 10.5 24 Noroeste 41 Noroeste 0 -- -- 65
2020-09-25 07:00:00 11.6 18 Noroeste 41 Noroeste 0 -- -- 61
2020-09-25 06:00:00 11.5 20 Noroeste 49 Oeste 0 -- -- 67
2020-09-25 05:00:00 11.8 13 Noroeste 29 Noroeste 0.2 -- -- 71
2020-09-25 04:00:00 11.9 15 Noroeste 37 Noroeste 0 -- -- 72
2020-09-25 03:00:00 12.3 10 Noroeste 32 Noroeste 0.4 -- -- 83
2020-09-25 02:00:00 14.4 17 Noroeste 29 Noroeste 0 -- -- 68
2020-09-25 01:00:00 14.9 6 Norte 17 Noroeste 0 -- -- 69
2020-09-25 00:00:00 16 5 Noroeste 11 Noroeste 0 -- -- 65
2020-09-24 23:00:00 17 6 Norte 16 Noroeste 0 -- -- 62
2020-09-24 22:00:00 19.5 8 Noroeste 32 Noroeste 0 -- -- 46
2020-09-24 21:00:00 20.3 20 Oeste 48 Oeste 0 -- -- 39
2020-09-24 20:00:00 21.4 19 Oeste 45 Oeste 0 -- -- 36
2020-09-24 19:00:00 22.5 21 Oeste 45 Oeste 0 -- -- 33
2020-09-24 18:00:00 23.3 22 Oeste 37 Noroeste 0 -- -- 32
2020-09-24 17:00:00 22.7 18 Noroeste 34 Noroeste 0 -- -- 37
2020-09-24 16:00:00 23 11 Oeste 28 Noroeste 0 -- -- 40
2020-09-24 15:00:00 22 9 Oeste 30 Noroeste 0 -- -- 44
2020-09-24 14:00:00 20.9 8 Oeste 22 Oeste 0 -- -- 47
2020-09-24 13:00:00 19.9 10 Oeste 18 Noroeste 0 -- -- 59
2020-09-24 12:00:00 19.8 0 Calma 7 Sudoeste 0 -- -- 66
2020-09-24 11:00:00 18.4 0 Calma 9 Sudeste 0 -- -- 76
2020-09-24 10:00:00 16.6 0 Calma 4 Sudeste 0 -- -- 85
2020-09-24 09:00:00 13.8 4 Noroeste 6 Noroeste 0 -- -- 91
2020-09-24 08:00:00 13.1 0 Calma -- -- 0 -- -- 92
2020-09-24 07:00:00 14.3 0 Calma 5 Noroeste 0 -- -- 90
2020-09-24 06:00:00 14.8 3 Noroeste 5 Noroeste 0 -- -- 89
2020-09-24 05:00:00 14.7 0 Calma 4 Norte 0 -- -- 89
2020-09-24 04:00:00 16 0 Calma 9 Noroeste 0 -- -- 87
2020-09-24 03:00:00 17 7 Noroeste 11 Noroeste 0 -- -- 83
2020-09-24 02:00:00 17.2 6 Noroeste 13 Noroeste 0 -- -- 84
2020-09-24 01:00:00 18 0 Calma 12 Noroeste 0 -- -- 78
2020-09-24 00:00:00 17.8 3 Norte 8 Noroeste 0 -- -- 77
2020-09-23 23:00:00 18.1 2 Nordeste 23 Norte 0 -- -- 76
2020-09-23 22:00:00 17.2 3 Nordeste 12 Noroeste 0 -- -- 77
2020-09-23 21:00:00 19 0 Calma 5 Sudeste 0 -- -- 70
2020-09-23 20:00:00 21 0 Calma 5 Este 0 -- -- 63
2020-09-23 19:00:00 23 0 Calma 7 Norte 0 -- -- 59
2020-09-23 18:00:00 23.8 3 Oeste 23 Noroeste 0 -- -- 49
2020-09-23 17:00:00 24.2 8 Noroeste 27 Noroeste -- -- -- 46
2020-09-23 16:00:00 23.7 15 Noroeste 27 Oeste 0 -- -- 49
2020-09-23 15:00:00 25.3 6 Sudoeste 19 Sudeste 0 -- -- 42
2020-09-23 14:00:00 25.5 8 Sur 17 Sudeste 0.2 -- -- 43
2020-09-23 13:00:00 23.8 8 Sudeste 19 Sur 0 -- -- 48
2020-09-23 12:00:00 21.9 10 Sudeste 28 Sudeste 0 -- -- 54
2020-09-23 11:00:00 20.1 10 Sudeste 17 Sudeste 0 -- -- 64
2020-09-23 10:00:00 17.3 7 Sudeste 12 Sudeste 0 -- -- 72
2020-09-23 09:00:00 14.1 0 Calma 4 Sudoeste 0 -- -- 89
2020-09-23 08:00:00 13.2 2 Oeste 7 Noroeste 0 -- -- 89
2020-09-23 07:00:00 12.7 0 Calma 4 Oeste 0 -- -- 92
2020-09-23 06:00:00 11.8 0 Calma 7 Oeste 0 -- -- 92
2020-09-23 05:00:00 12.2 0 Calma 5 Oeste 0 -- -- 90
2020-09-23 04:00:00 12.9 0 Calma -- -- 0 -- -- 89
2020-09-23 03:00:00 13.9 0 Calma -- -- 0 -- -- 87
2020-09-23 02:00:00 15.3 0 Calma 8 Oeste 0 -- -- 84
2020-09-23 01:00:00 16.6 5 Oeste 10 Noroeste 0 -- -- 74
2020-09-23 00:00:00 17.2 0 Calma 17 Norte 0 -- -- 79
2020-09-22 23:00:00 18.5 8 Sur 14 Sur 0 -- -- 67
2020-09-22 22:00:00 17.6 0 Calma 4 Norte 0 -- -- 71
2020-09-22 21:00:00 19 0 Calma 3 Noroeste 0 -- -- 65
2020-09-22 20:00:00 21.2 0 Calma 4 Sudoeste 0 -- -- 55
2020-09-22 19:00:00 23.4 0 Calma 12 Oeste 0 -- -- 46
2020-09-22 18:00:00 25 4 Oeste 14 Noroeste 0 -- -- 38
2020-09-22 17:00:00 24.8 8 Noroeste 19 Oeste 0 -- -- 38
2020-09-22 16:00:00 24.6 6 Noroeste 17 Noroeste 0 -- -- 43
2020-09-22 15:00:00 23.3 6 Norte 23 Noroeste 0 -- -- 45
2020-09-22 14:00:00 23.1 6 Oeste 15 Noroeste 0 -- -- 48
2020-09-22 13:00:00 21.7 5 Sur 14 Oeste 0 -- -- 56
2020-09-22 12:00:00 20.3 3 Oeste 12 Oeste 0 -- -- 64
2020-09-22 11:00:00 18.7 4 Oeste 11 Oeste 0 -- -- 69
2020-09-22 10:00:00 16.4 6 Noroeste 14 Noroeste 0 -- -- 79
2020-09-22 09:00:00 14.2 8 Noroeste 12 Oeste 0 -- -- 87
2020-09-22 08:00:00 12.1 3 Noroeste 10 Noroeste 0 -- -- 91
2020-09-22 07:00:00 13 5 Norte 13 Noroeste 0 -- -- 89
2020-09-22 06:00:00 13 6 Norte 12 Noroeste 0 -- -- 90
2020-09-22 05:00:00 13.1 4 Noroeste 9 Norte 0 -- -- 91
2020-09-22 04:00:00 13.1 3 Norte 8 Noroeste 0 -- -- 90
2020-09-22 03:00:00 14.4 4 Oeste 17 Noroeste 0 -- -- 85
2020-09-22 02:00:00 15 11 Noroeste 21 Noroeste 0 -- -- 84
2020-09-22 01:00:00 15.9 9 Noroeste 13 Noroeste 0 -- -- 81
2020-09-22 00:00:00 16.2 5 Noroeste 17 Noroeste 0 -- -- 80
2020-09-21 23:00:00 16.6 8 Noroeste 21 Norte 0 -- -- 77
2020-09-21 22:00:00 17 10 Norte 23 Norte 0 -- -- 75
2020-09-21 21:00:00 17.9 7 Noroeste 15 Norte 0 -- -- 70
2020-09-21 20:00:00 19.1 8 Norte 27 Norte 0 -- -- 66
2020-09-21 19:00:00 21 12 Norte 27 Norte 0 -- -- 56
2020-09-21 18:00:00 22.1 13 Norte 23 Norte 0 -- -- 52
2020-09-21 17:00:00 22.2 14 Norte 33 Noroeste 0 -- -- 54
2020-09-21 16:00:00 22.6 13 Norte 28 Noroeste 0 -- -- 52
2020-09-21 15:00:00 21.5 16 Norte 32 Noroeste 0 -- -- 62
2020-09-21 14:00:00 21.6 15 Noroeste 30 Noroeste 0 -- -- 60
2020-09-21 13:00:00 20.8 15 Noroeste 27 Noroeste 0 -- -- 65
2020-09-21 12:00:00 20.1 17 Noroeste 27 Noroeste 0 -- -- 66
2020-09-21 11:00:00 18.4 14 Noroeste 21 Oeste 0 -- -- 74
2020-09-21 10:00:00 16.9 9 Noroeste 20 Noroeste 0 -- -- 79
2020-09-21 09:00:00 15.4 10 Noroeste 19 Oeste 0 -- -- 86
2020-09-21 08:00:00 15.1 9 Noroeste 13 Noroeste 0 -- -- 88
2020-09-21 07:00:00 15.5 9 Noroeste 13 Noroeste 0 -- -- 86
2020-09-21 06:00:00 15.5 3 Norte 11 Noroeste 0 -- -- 86
2020-09-21 05:00:00 16 7 Noroeste 17 Noroeste 0 -- -- 83
2020-09-21 04:00:00 15.2 5 Noroeste 9 Noroeste 0 -- -- 86
2020-09-21 03:00:00 15.9 4 Noroeste 12 Noroeste 0 -- -- 86
2020-09-21 02:00:00 16.5 10 Noroeste 17 Noroeste 0 -- -- 84
2020-09-21 01:00:00 16.5 9 Noroeste 18 Noroeste 0 -- -- 85
2020-09-21 00:00:00 16.4 5 Noroeste 11 Noroeste 0 -- -- 85
2020-09-20 23:00:00 16.1 6 Noroeste 14 Noroeste 0 -- -- 87
2020-09-20 22:00:00 16.4 8 Noroeste 13 Noroeste 0 -- -- 88
2020-09-20 21:00:00 16.9 6 Noroeste 12 Noroeste 0 -- -- 87
2020-09-20 20:00:00 17.2 6 Norte 10 Norte -- -- -- 87
2020-09-20 19:00:00 17.4 3 Norte 23 Noroeste 1 -- -- 87
2020-09-20 18:00:00 20.3 12 Noroeste 19 Oeste 0 -- -- 66
2020-09-20 17:00:00 21.7 8 Oeste 17 Noroeste 0 -- -- 57
2020-09-20 16:00:00 23.8 0 Calma 11 Noroeste 0 -- -- 44
2020-09-20 15:00:00 23.1 8 Noroeste 19 Noroeste 0 -- -- 50
2020-09-20 14:00:00 21.9 8 Noroeste 16 Noroeste 0 -- -- 55
2020-09-20 13:00:00 21.3 6 Noroeste 14 Norte 0 -- -- 59
2020-09-20 12:00:00 20.1 2 Norte 10 Noroeste 0.2 -- -- 68
2020-09-20 11:00:00 18.5 2 Norte 6 Norte 0 -- -- 77
2020-09-20 10:00:00 16.9 0 Calma 4 Sur 0 -- -- 80
2020-09-20 09:00:00 14.2 0 Calma 5 Noroeste 0 -- -- 91
2020-09-20 08:00:00 12.5 0 Calma 5 Noroeste 0 -- -- 94
2020-09-20 07:00:00 13.2 0 Calma 6 Noroeste 0 -- -- 93
2020-09-20 06:00:00 14.2 3 Noroeste 9 Oeste 0 -- -- 93
2020-09-20 05:00:00 13.9 4 Noroeste 8 Noroeste 0 -- -- 95
2020-09-20 04:00:00 14 0 Calma 5 Noroeste 0 -- -- 94
2020-09-20 03:00:00 14.1 0 Calma 5 Sudeste 0 -- -- 95
2020-09-20 02:00:00 14.5 0 Calma 5 Sur 0 -- -- 92
2020-09-20 01:00:00 15.4 0 Calma 8 Norte 0 -- -- 91
2020-09-20 00:00:00 15.6 4 Norte 10 Noroeste 0 -- -- 89
2020-09-19 23:00:00 16.3 6 Noroeste 12 Noroeste 0 -- -- 86
2020-09-19 22:00:00 16.9 0 Calma 6 Oeste 0 -- -- 88
2020-09-19 21:00:00 17.4 0 Calma 4 Noroeste 0 -- -- 90
2020-09-19 20:00:00 17.5 0 Calma 13 Noroeste 0.2 -- -- 89
2020-09-19 19:00:00 18.1 11 Noroeste 19 Noroeste 0.6 -- -- 82
2020-09-19 18:00:00 19 5 Noroeste 14 Noroeste 0 -- -- 79
2020-09-19 17:00:00 18.2 3 Norte 27 Sudeste 2 -- -- 84
2020-09-19 16:00:00 21 15 Sudeste 40 Sur 0.2 -- -- 65
2020-09-19 15:00:00 23 18 Sudeste 39 Sudeste 0 -- -- 57
2020-09-19 14:00:00 20.4 17 Sudeste 37 Sudeste 0 -- -- 72
2020-09-19 13:00:00 20.3 20 Sudeste 30 Sudeste 0.4 -- -- 76
2020-09-19 12:00:00 17.5 17 Sudeste 30 Sudeste 0 -- -- 86
2020-09-19 11:00:00 17.3 18 Sudeste 29 Sudeste 0 -- -- 87
2020-09-19 10:00:00 17.8 15 Sudeste 27 Sudeste 0 -- -- 76
2020-09-19 09:00:00 17 9 Sudeste 14 Sudeste 0 -- -- 74
2020-09-19 08:00:00 16.6 11 Sudeste 21 Sudeste 0 -- -- 72
2020-09-19 07:00:00 17.5 11 Sudeste 31 Sudeste 0 -- -- 72
2020-09-19 06:00:00 18.4 18 Sudeste 36 Sudeste 0 -- -- 76
2020-09-19 05:00:00 18.5 13 Sudeste 29 Sudeste 0 -- -- 70
2020-09-19 04:00:00 18.3 14 Sudeste 29 Sudeste 0 -- -- 75
2020-09-19 03:00:00 18.5 16 Sudeste 27 Sudeste 0 -- -- 81
2020-09-19 02:00:00 18.6 13 Sudeste 27 Sudeste 0 -- -- 83
2020-09-19 01:00:00 18.8 10 Sudeste 24 Sudeste 0 -- -- 83
2020-09-19 00:00:00 18.9 13 Sudeste 23 Sur 0 -- -- 81
2020-09-18 23:00:00 19.5 12 Sudeste 25 Sudeste 0 -- -- 77
2020-09-18 22:00:00 19.4 9 Este 27 Este 0 -- -- 77
2020-09-18 21:00:00 20 13 Sudeste 25 Sudeste 0 -- -- 66
2020-09-18 20:00:00 21.1 10 Este 23 Este 0 -- -- 64
2020-09-18 19:00:00 22.5 11 Sudeste 40 Sudeste 0 -- -- 59
2020-09-18 18:00:00 22.9 23 Sudeste 44 Sudeste 0 -- -- 64
2020-09-18 17:00:00 23.1 20 Sudeste 51 Sudeste 0 -- -- 62
2020-09-18 16:00:00 25 32 Sudeste 53 Sudeste 0 -- -- 51
2020-09-18 15:00:00 25 30 Sudeste 53 Sudeste 0 -- -- 54
2020-09-18 14:00:00 24.3 27 Sudeste 49 Sudeste 0 -- -- 59
2020-09-18 13:00:00 23.2 29 Sudeste 50 Sudeste 0 -- -- 61
2020-09-18 12:00:00 22.5 25 Sudeste 41 Sudeste 0 -- -- 62
2020-09-18 11:00:00 21.6 26 Sudeste 46 Sudeste 0 -- -- 64
2020-09-18 10:00:00 21.5 24 Sudeste 48 Sudeste 0 -- -- 61
2020-09-18 09:00:00 21.3 20 Sudeste 36 Sudeste 0 -- -- 58
2020-09-18 08:00:00 20.6 17 Sudeste 32 Sudeste 0 -- -- 62
2020-09-18 07:00:00 20.8 16 Sudeste 30 Sudeste 0 -- -- 64
2020-09-18 06:00:00 21.5 10 Sudeste 32 Sudeste 0 -- -- 60
2020-09-18 05:00:00 21.9 10 Sudeste 23 Sudeste 0 -- -- 55
2020-09-18 04:00:00 22.7 11 Sudeste 19 Sudeste 0 -- -- 53
2020-09-18 03:00:00 23.2 10 Sur 26 Sudeste 0 -- -- 52
2020-09-18 02:00:00 23.7 16 Sudeste 26 Este 0 -- -- 50
2020-09-18 01:00:00 23.8 14 Sudeste 26 Sudeste 0 -- -- 49
2020-09-18 00:00:00 24.6 12 Sudeste 29 Sudeste 0 -- -- 45
2020-09-17 23:00:00 25.4 17 Sudeste 28 Este 0 -- -- 41
2020-09-17 22:00:00 25.9 15 Sudeste 25 Sudeste 0 -- -- 37
2020-09-17 21:00:00 26.5 13 Sudeste 35 Sudeste 0 -- -- 36
2020-09-17 20:00:00 27.4 19 Sudeste 33 Sudeste 0 -- -- 33
2020-09-17 19:00:00 28.3 19 Sudeste 36 Sudeste 0 -- -- 36
2020-09-17 18:00:00 29.3 21 Sudeste 38 Sudeste 0 -- -- 35
2020-09-17 17:00:00 29 19 Sudeste 37 Este 0 -- -- 35
2020-09-17 16:00:00 30 19 Sudeste 37 Sudeste 0 -- -- 33
2020-09-17 15:00:00 29.6 20 Sudeste 35 Sudeste 0 -- -- 35
2020-09-17 14:00:00 29.5 18 Sudeste 35 Sudeste 0 -- -- 35
2020-09-17 13:00:00 28.6 19 Sudeste 33 Sudeste 0 -- -- 39
2020-09-17 12:00:00 25.6 13 Sudeste 23 Sudeste 0 -- -- 49
2020-09-17 11:00:00 23.2 6 Sudeste 12 Sudeste 0 -- -- 61
2020-09-17 10:00:00 20.3 3 Este 7 Este 0 -- -- 73
2020-09-17 09:00:00 18.6 0 Calma 4 Nordeste 0 -- -- 81
2020-09-17 08:00:00 18.3 3 Norte 5 Noroeste 0 -- -- 76
2020-09-17 07:00:00 19.1 0 Calma 7 Noroeste 0 -- -- 71
2020-09-17 06:00:00 19.4 0 Calma 9 Oeste 0 -- -- 68
2020-09-17 05:00:00 19.2 5 Oeste 8 Noroeste 0 -- -- 66
2020-09-17 04:00:00 19.7 3 Sur 9 Sur 0 -- -- 67
2020-09-17 03:00:00 18.5 0 Calma 5 Sudoeste 0 -- -- 69
2020-09-17 02:00:00 18.9 0 Calma 4 Sudoeste 0 -- -- 70
2020-09-17 01:00:00 19.8 0 Calma 6 Sur 0 -- -- 65
2020-09-17 00:00:00 20.6 0 Calma 8 Oeste 0 -- -- 66
2020-09-16 23:00:00 21 3 Noroeste 6 Oeste 0 -- -- 61
2020-09-16 22:00:00 21.3 3 Oeste 6 Oeste 0 -- -- 57
2020-09-16 21:00:00 23.3 0 Calma 6 Norte 0 -- -- 52
2020-09-16 20:00:00 26.1 0 Calma -- -- 0 -- -- 42
2020-09-16 19:00:00 30.1 0 Calma 7 Este 0 -- -- 35
2020-09-16 18:00:00 30.9 4 Sur 9 Sur 0 -- -- 28
2020-09-16 17:00:00 30.7 4 Este 13 Sur 0 -- -- 26
2020-09-16 16:00:00 31.3 2 Sur 12 Sudeste 0 -- -- 26
2020-09-16 15:00:00 30.7 4 Sudoeste 12 Sur 0 -- -- 32
2020-09-16 14:00:00 29.6 4 Sudeste 15 Sur 0 -- -- 37
2020-09-16 13:00:00 28.3 6 Sudeste 15 Sudeste 0 -- -- 42
2020-09-16 12:00:00 26.9 4 Sur 10 Sudeste 0 -- -- 45
2020-09-16 11:00:00 24.7 5 Sur 8 Sur 0 -- -- 49
2020-09-16 10:00:00 21 0 Calma 3 Norte 0 -- -- 60
2020-09-16 09:00:00 17.4 0 Calma 6 Noroeste 0 -- -- 73
2020-09-16 08:00:00 16.6 6 Noroeste 9 Noroeste 0 -- -- 71
2020-09-16 07:00:00 16.3 4 Noroeste 10 Oeste 0 -- -- 73
2020-09-16 06:00:00 15.8 0 Calma 5 Oeste 0 -- -- 76
2020-09-16 05:00:00 16.8 0 Calma 4 Noroeste 0 -- -- 73
2020-09-16 04:00:00 19 3 Noroeste 9 Oeste 0 -- -- 63
2020-09-16 03:00:00 18.7 0 Calma 6 Oeste 0 -- -- 66
2020-09-16 02:00:00 18.6 0 Calma 5 Noroeste 0 -- -- 70
2020-09-16 01:00:00 19.5 0 Calma 5 Noroeste 0 -- -- 63
2020-09-16 00:00:00 20.2 0 Calma 5 Sur 0 -- -- 63
2020-09-15 23:00:00 22.8 2 Noroeste 8 Noroeste 0 -- -- 56
2020-09-15 22:00:00 22.7 0 Calma 5 Noroeste 0 -- -- 55
2020-09-15 21:00:00 24.3 0 Calma 6 Nordeste 0 -- -- 52
2020-09-15 20:00:00 26 0 Calma -- -- 0 -- -- 46
2020-09-15 19:00:00 29.6 0 Calma 4 Norte 0 -- -- 35
2020-09-15 18:00:00 29.2 0 Calma 14 Sudeste 0 -- -- 35
2020-09-15 17:00:00 30.1 8 Sudeste 17 Sudeste 0 -- -- 32
2020-09-15 16:00:00 29.9 8 Sudeste 19 Sudeste 0 -- -- 32
2020-09-15 15:00:00 29.6 9 Sur 24 Sudeste 0 -- -- 34
2020-09-15 14:00:00 28.3 10 Sudeste 27 Sudeste 0 -- -- 39
2020-09-15 13:00:00 26.8 12 Sudeste 22 Sur 0 -- -- 42
2020-09-15 12:00:00 24.4 9 Sudeste 15 Sudeste 0 -- -- 53
2020-09-15 11:00:00 22 7 Sudeste 17 Sudeste 0 -- -- 59
2020-09-15 10:00:00 21.1 10 Sudeste 17 Sudeste 0 -- -- 66
2020-09-15 09:00:00 19.7 2 Sudeste 11 Nordeste 0 -- -- 69
2020-09-15 08:00:00 18.2 5 Norte 9 Norte 0 -- -- 72
2020-09-15 07:00:00 19.8 0 Calma 9 Sudeste 0 -- -- 63
2020-09-15 06:00:00 20.8 7 Sudeste 17 Este 0 -- -- 56
2020-09-15 05:00:00 21.4 9 Sudeste 19 Sur 0 -- -- 55
2020-09-15 04:00:00 21.9 8 Sudeste 25 Este 0 -- -- 55
2020-09-15 03:00:00 23 13 Sudeste 22 Sur 0 -- -- 50
2020-09-15 02:00:00 24.1 10 Sudeste 19 Sudeste 0 -- -- 43
2020-09-15 01:00:00 23.5 6 Este 18 Sudeste 0 -- -- 46
2020-09-15 00:00:00 24.8 11 Sudeste 19 Sudeste 0 -- -- 40
2020-09-14 23:00:00 25.3 9 Sudeste 20 Este 0 -- -- 38
2020-09-14 22:00:00 26 9 Sudeste 15 Este 0 -- -- 36
2020-09-14 21:00:00 26.5 4 Sudeste 13 Sudeste 0 -- -- 39
2020-09-14 20:00:00 28.5 10 Sudeste 19 Sudeste 0 -- -- 33
2020-09-14 19:00:00 29.6 11 Sudeste 24 Sudeste 0 -- -- 30
2020-09-14 18:00:00 30.3 12 Sudeste 26 Sudeste 0 -- -- 28
2020-09-14 17:00:00 31.1 15 Sudeste 31 Sudeste 0 -- -- 26
2020-09-14 16:00:00 31.5 16 Sudeste 32 Sudeste 0 -- -- 26
2020-09-14 15:00:00 30.8 18 Sudeste 33 Sur 0 -- -- 28
2020-09-14 14:00:00 29.9 20 Sudeste 34 Sudeste 0 -- -- 31
2020-09-14 13:00:00 28.7 22 Sudeste 35 Sudeste 0 -- -- 33
2020-09-14 12:00:00 27.5 19 Sudeste 33 Sudeste 0 -- -- 35
2020-09-14 11:00:00 25 8 Sur 23 Sudeste 0 -- -- 43
2020-09-14 10:00:00 22.9 9 Sur 19 Sudeste 0 -- -- 46
2020-09-14 09:00:00 18.3 4 Sur 9 Sur 0 -- -- 62
2020-09-14 08:00:00 15.5 0 Calma -- -- 0 -- -- 72
2020-09-14 07:00:00 17.6 0 Calma 10 Sur 0 -- -- 62
2020-09-14 06:00:00 20.1 5 Sur 15 Sudeste 0 -- -- 52
2020-09-14 05:00:00 20.4 7 Sudeste 16 Sur 0 -- -- 50
2020-09-14 04:00:00 22.4 11 Sudeste 17 Sudeste 0 -- -- 43
2020-09-14 03:00:00 23.2 11 Sudeste 18 Sudeste 0 -- -- 40
2020-09-14 02:00:00 23.1 11 Sudeste 17 Este 0 -- -- 41
2020-09-14 01:00:00 22.8 10 Sudeste 15 Este 0 -- -- 41
2020-09-14 00:00:00 22.2 6 Sudeste 11 Sudeste 0 -- -- 42
2020-09-13 23:00:00 24.4 9 Sudeste 15 Sudeste 0 -- -- 37
2020-09-13 22:00:00 25.6 8 Sudeste 17 Sudeste 0 -- -- 36
2020-09-13 21:00:00 25.8 6 Sudeste 18 Sur 0 -- -- 37
2020-09-13 20:00:00 28.7 10 Sudeste 21 Sudeste 0 -- -- 30
2020-09-13 19:00:00 31.2 13 Sudeste 26 Sudeste 0 -- -- 26
2020-09-13 18:00:00 32.2 15 Sudeste 27 Este 0 -- -- 24
2020-09-13 17:00:00 32.1 18 Sudeste 31 Sudeste 0 -- -- 26
2020-09-13 16:00:00 31.6 16 Sudeste 34 Sudeste 0 -- -- 29
2020-09-13 15:00:00 30.8 17 Sudeste 34 Sudeste 0 -- -- 31
2020-09-13 14:00:00 29.8 19 Sudeste 34 Sudeste 0 -- -- 31
2020-09-13 13:00:00 28.4 15 Sudeste 30 Sudeste 0 -- -- 37
2020-09-13 12:00:00 26.7 13 Sudeste 31 Sudeste 0 -- -- 41
2020-09-13 11:00:00 23.1 7 Sur 12 Sur 0 -- -- 53
2020-09-13 10:00:00 20.3 6 Sudeste 10 Sudeste 0 -- -- 61
2020-09-13 09:00:00 15.1 0 Calma 9 Oeste 0 -- -- 79
2020-09-13 08:00:00 13 6 Noroeste 8 Noroeste 0 -- -- 86
2020-09-13 07:00:00 12.4 0 Calma -- -- 0 -- -- 90
2020-09-13 06:00:00 12.6 0 Calma 6 Oeste 0 -- -- 86
2020-09-13 05:00:00 13.8 0 Calma 4 Noroeste 0 -- -- 85
2020-09-13 04:00:00 14.8 2 Oeste 5 Noroeste 0 -- -- 83
2020-09-13 03:00:00 16.2 0 Calma 8 Noroeste 0 -- -- 79
2020-09-13 02:00:00 16.9 3 Noroeste 8 Noroeste 0 -- -- 77
2020-09-13 01:00:00 18.9 3 Oeste 9 Oeste 0 -- -- 68
2020-09-13 00:00:00 20.4 3 Oeste 15 Noroeste 0 -- -- 64
2020-09-12 23:00:00 21.5 3 Oeste 9 Noroeste 0 -- -- 61
2020-09-12 22:00:00 23 0 Calma 14 Noroeste 0 -- -- 55
2020-09-12 21:00:00 24.3 9 Norte 19 Noroeste 0 -- -- 52
2020-09-12 20:00:00 25.9 9 Norte 24 Norte 0 -- -- 49
2020-09-12 19:00:00 27.7 12 Norte 24 Norte 0 -- -- 44
2020-09-12 18:00:00 29.5 4 Este 9 Norte 0 -- -- 32
2020-09-12 17:00:00 29.3 4 Sudeste 12 Sur 0 -- -- 33
2020-09-12 16:00:00 28.4 3 Norte 11 Norte 0 -- -- 38
2020-09-12 15:00:00 27.6 2 Este 13 Norte 0 -- -- 39
2020-09-12 14:00:00 26.3 5 Norte 10 Nordeste 0 -- -- 45
2020-09-12 13:00:00 25.8 4 Sur 11 Sur 0 -- -- 45
2020-09-12 12:00:00 24 0 Calma 8 Sudeste 0 -- -- 52
2020-09-12 11:00:00 21.6 3 Oeste 6 Noroeste 0 -- -- 60
2020-09-12 10:00:00 18.3 0 Calma 10 Noroeste 0 -- -- 75
2020-09-12 09:00:00 15.8 5 Noroeste 10 Noroeste 0 -- -- 82
2020-09-12 08:00:00 13.1 4 Noroeste 8 Noroeste 0 -- -- 90
2020-09-12 07:00:00 13.2 4 Noroeste 6 Noroeste 0 -- -- 89
2020-09-12 06:00:00 13.8 4 Norte 10 Oeste 0 -- -- 87
2020-09-12 05:00:00 15.3 6 Noroeste 10 Noroeste 0 -- -- 82
2020-09-12 04:00:00 15.4 3 Noroeste 9 Noroeste 0 -- -- 83
2020-09-12 03:00:00 17 7 Noroeste 14 Noroeste 0 -- -- 77
2020-09-12 02:00:00 17.6 8 Noroeste 18 Noroeste 0 -- -- 78
2020-09-12 01:00:00 18.6 10 Noroeste 18 Noroeste 0 -- -- 76
2020-09-12 00:00:00 19.4 11 Noroeste 18 Noroeste 0 -- -- 75
2020-09-11 23:00:00 20.3 10 Noroeste 22 Noroeste 0 -- -- 73
2020-09-11 22:00:00 21.4 10 Noroeste 19 Noroeste 0 -- -- 68
2020-09-11 21:00:00 22.8 8 Noroeste 21 Norte 0 -- -- 58
2020-09-11 20:00:00 24.5 7 Norte 24 Noroeste 0 -- -- 50
2020-09-11 19:00:00 26.6 12 Norte 26 Noroeste 0 -- -- 45
2020-09-11 18:00:00 28 11 Norte 25 Noroeste 0 -- -- 40
2020-09-11 17:00:00 28.9 17 Noroeste 31 Oeste 0 -- -- 38
2020-09-11 16:00:00 28.6 14 Noroeste 30 Noroeste 0 -- -- 38
2020-09-11 15:00:00 28.3 8 Oeste 24 Oeste 0 -- -- 41
2020-09-11 14:00:00 27.4 5 Oeste 17 Oeste 0 -- -- 40
2020-09-11 13:00:00 25.7 7 Noroeste 19 Noroeste 0 -- -- 46
2020-09-11 12:00:00 23.9 12 Noroeste 22 Noroeste 0 -- -- 53
2020-09-11 11:00:00 22 6 Oeste 15 Oeste 0 -- -- 61
2020-09-11 10:00:00 19.6 3 Noroeste 9 Noroeste 0 -- -- 72
2020-09-11 09:00:00 16.2 3 Noroeste 8 Noroeste 0 -- -- 83
2020-09-11 08:00:00 13.6 0 Calma 4 Noroeste 0 -- -- 86
2020-09-11 07:00:00 16 5 Noroeste 14 Noroeste 0 -- -- 80
2020-09-11 06:00:00 16.3 3 Norte 17 Noroeste 0 -- -- 79
2020-09-11 05:00:00 17.1 10 Noroeste 20 Noroeste 0 -- -- 75
2020-09-11 04:00:00 17.6 12 Noroeste 19 Noroeste 0 -- -- 71
2020-09-11 03:00:00 17.9 9 Noroeste 23 Noroeste 0 -- -- 69
2020-09-11 02:00:00 18.3 14 Noroeste 23 Noroeste 0 -- -- 66
2020-09-11 01:00:00 18.8 13 Noroeste 23 Noroeste 0 -- -- 64
2020-09-11 00:00:00 18.9 11 Noroeste 27 Noroeste 0 -- -- 64
2020-09-10 23:00:00 19.8 13 Noroeste 33 Noroeste 0 -- -- 60
2020-09-10 22:00:00 20.9 20 Noroeste 37 Noroeste 0 -- -- 55
2020-09-10 21:00:00 21.9 21 Noroeste 41 Noroeste 0 -- -- 51
2020-09-10 20:00:00 23.4 18 Noroeste 43 Noroeste 0 -- -- 44
2020-09-10 19:00:00 25 18 Norte 40 Noroeste 0 -- -- 39
2020-09-10 18:00:00 26.3 20 Noroeste 40 Noroeste 0 -- -- 37
2020-09-10 17:00:00 26.8 18 Norte 36 Norte 0 -- -- 36
2020-09-10 16:00:00 27.1 18 Norte 42 Noroeste 0 -- -- 35
2020-09-10 15:00:00 27.4 20 Noroeste 36 Noroeste 0 -- -- 33
2020-09-10 14:00:00 26.8 17 Norte 32 Norte 0 -- -- 35
2020-09-10 13:00:00 25.8 15 Norte 36 Noroeste 0 -- -- 36
2020-09-10 12:00:00 24.8 14 Noroeste 28 Noroeste 0 -- -- 36
2020-09-10 11:00:00 23.1 13 Noroeste 33 Noroeste 0 -- -- 40
2020-09-10 10:00:00 20.6 17 Noroeste 30 Noroeste 0 -- -- 44
2020-09-10 09:00:00 18 15 Noroeste 25 Norte 0 -- -- 51
2020-09-10 08:00:00 17.2 15 Noroeste 27 Oeste 0 -- -- 53
2020-09-10 07:00:00 17.2 15 Noroeste 23 Noroeste 0 -- -- 54
2020-09-10 06:00:00 17.6 13 Noroeste 21 Noroeste 0 -- -- 52
2020-09-10 05:00:00 18 5 Oeste 25 Noroeste 0 -- -- 51
2020-09-10 04:00:00 17.8 9 Noroeste 21 Noroeste 0 -- -- 52
2020-09-10 03:00:00 18.4 12 Noroeste 19 Oeste 0 -- -- 50
2020-09-10 02:00:00 19 6 Oeste 18 Noroeste 0 -- -- 48
2020-09-10 01:00:00 20.1 6 Sudoeste 33 Norte 0 -- -- 47
2020-09-10 00:00:00 20.5 16 Norte 32 Norte 0 -- -- 46
2020-09-09 23:00:00 20.3 5 Sudoeste 28 Norte 0 -- -- 52
2020-09-09 22:00:00 20.9 12 Norte 33 Noroeste 0 -- -- 56
2020-09-09 21:00:00 23.3 9 Noroeste 24 Norte 0 -- -- 50
2020-09-09 20:00:00 25 9 Norte 26 Norte 0 -- -- 39
2020-09-09 19:00:00 26.3 16 Norte 33 Norte 0 -- -- 38
2020-09-09 18:00:00 27.3 18 Norte 34 Norte 0 -- -- 38
2020-09-09 17:00:00 27.9 19 Norte 39 Norte 0 -- -- 38
2020-09-09 16:00:00 28.7 15 Noroeste 29 Noroeste 0 -- -- 33
2020-09-09 15:00:00 28.2 10 Oeste 27 Noroeste 0 -- -- 33
2020-09-09 14:00:00 26.5 9 Oeste 30 Noroeste 0 -- -- 35
2020-09-09 13:00:00 24.8 11 Oeste 21 Noroeste 0 -- -- 38
2020-09-09 12:00:00 23.4 5 Oeste 13 Sudoeste 0 -- -- 46
2020-09-09 11:00:00 21.9 4 Oeste 10 Oeste 0 -- -- 48
2020-09-09 10:00:00 18.3 0 Calma 5 Norte 0 -- -- 59
2020-09-09 09:00:00 14.7 4 Norte 9 Noroeste 0 -- -- 70
2020-09-09 08:00:00 12.6 5 Noroeste 9 Noroeste 0 -- -- 74
2020-09-09 07:00:00 12.9 3 Noroeste 10 Noroeste 0 -- -- 72
2020-09-09 06:00:00 12.9 6 Noroeste 8 Noroeste 0 -- -- 72
2020-09-09 05:00:00 13.2 5 Noroeste 8 Noroeste 0 -- -- 70
2020-09-09 04:00:00 13.1 4 Noroeste 8 Noroeste 0 -- -- 71
2020-09-09 03:00:00 13.2 2 Noroeste 4 Oeste 0 -- -- 73
2020-09-09 02:00:00 14.6 3 Oeste 10 Oeste 0 -- -- 68
2020-09-09 01:00:00 15 2 Oeste 7 Noroeste 0 -- -- 65
2020-09-09 00:00:00 17 5 Noroeste 10 Noroeste 0 -- -- 55
2020-09-08 23:00:00 16.7 0 Calma 6 Noroeste 0 -- -- 62
2020-09-08 22:00:00 19.1 0 Calma 11 Norte 0 -- -- 50
2020-09-08 21:00:00 21.3 5 Noroeste 10 Norte 0 -- -- 44
2020-09-08 20:00:00 24.3 0 Calma 14 Sudoeste 0 -- -- 30
2020-09-08 19:00:00 26 5 Sur 17 Sur 0 -- -- 26
2020-09-08 18:00:00 26.8 8 Sur 17 Sur 0 -- -- 24
2020-09-08 17:00:00 26.7 9 Sudeste 17 Sudeste 0 -- -- 25
2020-09-08 16:00:00 26.8 6 Sur 18 Sur 0 -- -- 24
2020-09-08 15:00:00 25.2 4 Noroeste 14 Sur 0 -- -- 28
2020-09-08 14:00:00 24.3 5 Oeste 16 Oeste 0 -- -- 31
2020-09-08 13:00:00 23 4 Oeste 14 Oeste 0 -- -- 35
2020-09-08 12:00:00 21.5 4 Sudoeste 11 Sudeste 0 -- -- 43
2020-09-08 11:00:00 18.8 4 Noroeste 15 Noroeste 0 -- -- 50
2020-09-08 10:00:00 16.3 6 Noroeste 11 Oeste 0 -- -- 58
2020-09-08 09:00:00 12.2 4 Noroeste 9 Noroeste 0 -- -- 74
2020-09-08 08:00:00 8 0 Calma 5 Noroeste 0 -- -- 87
2020-09-08 07:00:00 9.5 4 Noroeste 8 Norte 0 -- -- 80
2020-09-08 06:00:00 10 0 Calma 10 Noroeste 0 -- -- 80
2020-09-08 05:00:00 13.1 8 Noroeste 14 Oeste 0 -- -- 69
2020-09-08 04:00:00 14.1 8 Noroeste 17 Noroeste 0 -- -- 67
2020-09-08 03:00:00 14.5 11 Noroeste 25 Noroeste 0 -- -- 68
2020-09-08 02:00:00 15.3 9 Noroeste 30 Noroeste 0 -- -- 64
2020-09-08 01:00:00 15.5 13 Noroeste 25 Noroeste 0 -- -- 63
2020-09-08 00:00:00 15.2 10 Noroeste 50 Norte 0 -- -- 66
2020-09-07 23:00:00 15.3 25 Norte 46 Norte 0 -- -- 66
2020-09-07 22:00:00 16.2 20 Noroeste 34 Norte 0 -- -- 60
2020-09-07 21:00:00 16.8 15 Noroeste 39 Noroeste 0 -- -- 57
2020-09-07 20:00:00 18.1 24 Noroeste 44 Noroeste 0 -- -- 51
2020-09-07 19:00:00 19.6 22 Noroeste 49 Norte 0 -- -- 45
2020-09-07 18:00:00 20.4 27 Norte 56 Noroeste 0 -- -- 39
2020-09-07 17:00:00 20.4 29 Norte 50 Noroeste 0 -- -- 40
2020-09-07 16:00:00 20.6 21 Norte 46 Norte 0 -- -- 40
2020-09-07 15:00:00 20.4 23 Norte 45 Noroeste 0 -- -- 41
2020-09-07 14:00:00 19.6 25 Noroeste 46 Noroeste 0 -- -- 40
2020-09-07 13:00:00 19.5 15 Noroeste 42 Norte 0 -- -- 41
2020-09-07 12:00:00 18.6 25 Norte 46 Norte 0 -- -- 46
2020-09-07 11:00:00 17.5 17 Norte 34 Norte 0 -- -- 51
2020-09-07 10:00:00 15.9 15 Noroeste 33 Noroeste 0 -- -- 56
2020-09-07 09:00:00 14.8 14 Noroeste 28 Noroeste 0 -- -- 61
2020-09-07 08:00:00 13.3 12 Noroeste 27 Noroeste 0 -- -- 72
2020-09-07 07:00:00 13.6 13 Noroeste 30 Noroeste 0 -- -- 70
2020-09-07 06:00:00 13.8 10 Noroeste 28 Noroeste 0 -- -- 69
2020-09-07 05:00:00 13.8 14 Noroeste 30 Noroeste 0 -- -- 66
2020-09-07 04:00:00 14.1 13 Noroeste 34 Noroeste 0 -- -- 67
2020-09-07 03:00:00 14.5 15 Noroeste 34 Noroeste 0 -- -- 68
2020-09-07 02:00:00 15 17 Noroeste 36 Noroeste 0 -- -- 66
2020-09-07 01:00:00 14.5 13 Noroeste 45 Noroeste 0 -- -- 66
2020-09-07 00:00:00 15 22 Noroeste 45 Norte 0 -- -- 64
2020-09-06 23:00:00 15.5 12 Noroeste 36 Noroeste 0 -- -- 66
2020-09-06 22:00:00 16 17 Noroeste 34 Noroeste 0 -- -- 63
2020-09-06 21:00:00 16.2 14 Noroeste 28 Noroeste 0 -- -- 62
2020-09-06 20:00:00 16.8 17 Norte 44 Noroeste 0 -- -- 62
2020-09-06 19:00:00 19.2 19 Norte 47 Norte 0 -- -- 52
2020-09-06 18:00:00 20.3 23 Noroeste 42 Noroeste 0 -- -- 49
2020-09-06 17:00:00 21.1 21 Norte 42 Noroeste 0 -- -- 45
2020-09-06 16:00:00 21.3 19 Norte 39 Noroeste 0 -- -- 44
2020-09-06 15:00:00 20.9 19 Norte 40 Noroeste 0 -- -- 52
2020-09-06 14:00:00 20 21 Norte 41 Noroeste 0 -- -- 56
2020-09-06 13:00:00 18.6 22 Norte 40 Norte 0 -- -- 61
2020-09-06 12:00:00 19.3 18 Norte 36 Noroeste 0 -- -- 60
2020-09-06 11:00:00 17.8 15 Norte 38 Norte 0 -- -- 69
2020-09-06 10:00:00 17.4 19 Norte 39 Norte 0 -- -- 67
2020-09-06 09:00:00 16.6 15 Norte 32 Noroeste 0 -- -- 72
2020-09-06 08:00:00 15.9 16 Noroeste 30 Noroeste 0 -- -- 73
2020-09-06 07:00:00 15.8 13 Noroeste 30 Noroeste 0 -- -- 74
2020-09-06 06:00:00 15.9 13 Noroeste 27 Norte 0 -- -- 75
2020-09-06 05:00:00 16.1 13 Noroeste 30 Noroeste 0 -- -- 76
2020-09-06 04:00:00 16.2 12 Noroeste 28 Noroeste 0 -- -- 75
2020-09-06 03:00:00 16.4 15 Noroeste 31 Noroeste 0 -- -- 75
2020-09-06 02:00:00 16.7 13 Noroeste 36 Noroeste 0 -- -- 72
2020-09-06 01:00:00 16.9 13 Noroeste 38 Noroeste 0 -- -- 70
2020-09-06 00:00:00 17.2 18 Norte 41 Norte 0 -- -- 72
2020-09-05 23:00:00 17.7 22 Norte 43 Norte 0 -- -- 69
2020-09-05 22:00:00 18 17 Norte 40 Norte 0 -- -- 73
2020-09-05 21:00:00 18.5 21 Norte 48 Norte 0 -- -- 73
2020-09-05 20:00:00 19.3 25 Norte 46 Norte 0 -- -- 68
2020-09-05 19:00:00 20.8 24 Norte 46 Norte 0 -- -- 64
2020-09-05 18:00:00 22.6 23 Norte 48 Noroeste 0 -- -- 57
2020-09-05 17:00:00 23.7 24 Norte 44 Norte 0 -- -- 55
2020-09-05 16:00:00 24.5 22 Norte 41 Norte 0 -- -- 53
2020-09-05 15:00:00 24.6 20 Norte 38 Norte 0 -- -- 53
2020-09-05 14:00:00 24.6 19 Norte 33 Norte 0 -- -- 57
2020-09-05 13:00:00 24.9 17 Norte 31 Noroeste 0 -- -- 55
2020-09-05 12:00:00 23.9 17 Noroeste 28 Noroeste 0 -- -- 54
2020-09-05 11:00:00 22.9 12 Noroeste 26 Noroeste 0 -- -- 61
2020-09-05 10:00:00 21.4 9 Noroeste 18 Noroeste 0 -- -- 63
2020-09-05 09:00:00 17.7 5 Noroeste 12 Noroeste 0 -- -- 69
2020-09-05 08:00:00 14.8 3 Noroeste 6 Norte 0 -- -- 73
2020-09-05 07:00:00 15 2 Noroeste 6 Norte 0 -- -- 71
2020-09-05 06:00:00 15.2 0 Calma 8 Oeste 0 -- -- 70
2020-09-05 05:00:00 16.6 6 Noroeste 9 Noroeste 0 -- -- 64
2020-09-05 04:00:00 16.4 4 Noroeste 6 Noroeste 0 -- -- 66
2020-09-05 03:00:00 16.9 0 Calma 5 Noroeste 0 -- -- 67
2020-09-05 02:00:00 17 0 Calma 6 Oeste 0 -- -- 65
2020-09-05 01:00:00 17.5 0 Calma 5 Noroeste 0 -- -- 67
2020-09-05 00:00:00 18.9 4 Noroeste 7 Oeste 0 -- -- 59
2020-09-04 23:00:00 18.9 0 Calma 4 Nordeste 0 -- -- 65
2020-09-04 22:00:00 21.3 0 Calma 4 Nordeste 0 -- -- 56
2020-09-04 21:00:00 24.5 0 Calma 10 Sudeste 0 -- -- 44
2020-09-04 20:00:00 29.1 6 Sudeste 22 Sudeste 0 -- -- 30
2020-09-04 19:00:00 31 14 Sudeste 24 Sudeste 0 -- -- 24
2020-09-04 18:00:00 31.5 15 Sudeste 30 Sudeste 0 -- -- 25
2020-09-04 17:00:00 31.4 17 Sudeste 29 Sudeste 0 -- -- 26
2020-09-04 16:00:00 30.8 18 Sudeste 31 Sudeste 0 -- -- 29
2020-09-04 15:00:00 29.9 14 Sudeste 27 Sudeste 0 -- -- 31
2020-09-04 14:00:00 28.7 16 Sudeste 30 Sudeste 0 -- -- 36
2020-09-04 13:00:00 27.4 16 Sudeste 30 Sudeste 0 -- -- 40
2020-09-04 12:00:00 25.7 18 Sudeste 31 Sudeste 0 -- -- 47
2020-09-04 11:00:00 23.1 17 Sudeste 27 Sudeste 0 -- -- 56
2020-09-04 10:00:00 21.2 9 Sur 19 Sudeste 0 -- -- 64
2020-09-04 09:00:00 16.1 0 Calma 5 Norte 0 -- -- 69
2020-09-04 08:00:00 12.2 0 Calma 7 Oeste 0 -- -- 79
2020-09-04 07:00:00 12.6 0 Calma 8 Norte 0 -- -- 75
2020-09-04 06:00:00 13.9 3 Noroeste 8 Noroeste 0 -- -- 67
2020-09-04 05:00:00 13.9 4 Noroeste 8 Noroeste 0 -- -- 66
2020-09-04 04:00:00 14.6 5 Oeste 6 Oeste 0 -- -- 62
2020-09-04 03:00:00 15.2 5 Noroeste 9 Noroeste 0 -- -- 59
2020-09-04 02:00:00 15.2 4 Noroeste 9 Noroeste 0 -- -- 60
2020-09-04 01:00:00 16 7 Noroeste 9 Noroeste 0 -- -- 57
2020-09-04 00:00:00 17.4 5 Noroeste 7 Noroeste 0 -- -- 50
2020-09-03 23:00:00 17.8 3 Noroeste 9 Noroeste 0 -- -- 48
2020-09-03 22:00:00 17.9 0 Calma 5 Sudoeste 0 -- -- 56
2020-09-03 21:00:00 21 0 Calma -- -- 0 -- -- 45
2020-09-03 20:00:00 26.2 0 Calma 6 Este 0 -- -- 30
2020-09-03 19:00:00 28.8 4 Sudeste 8 Este 0 -- -- 19
2020-09-03 18:00:00 29.4 3 Sur 18 Sudeste 0 -- -- 19
2020-09-03 17:00:00 28.8 2 Sudoeste 14 Sur 0 -- -- 19
2020-09-03 16:00:00 27.9 4 Sur 12 Sur 0 -- -- 23
2020-09-03 15:00:00 26.4 4 Sur 12 Sudeste 0 -- -- 26
2020-09-03 14:00:00 24.6 2 Nordeste 16 Sudeste 0 -- -- 37
2020-09-03 13:00:00 22.6 5 Sudeste 17 Sur 0 -- -- 46
2020-09-03 12:00:00 20.4 6 Sur 13 Sur 0 -- -- 57
2020-09-03 11:00:00 18.7 4 Sudeste 8 Sur 0 -- -- 54
2020-09-03 10:00:00 15.7 3 Este 6 Sudeste 0 -- -- 64
2020-09-03 09:00:00 12.2 0 Calma 4 Este 0 -- -- 78
2020-09-03 08:00:00 8.6 0 Calma 3 Noroeste 0 -- -- 87
2020-09-03 07:00:00 9.8 2 Norte 8 Norte 0 -- -- 81
2020-09-03 06:00:00 10.9 0 Calma 13 Noroeste 0 -- -- 79
2020-09-03 05:00:00 12.7 8 Noroeste 13 Noroeste 0 -- -- 73
2020-09-03 04:00:00 12.8 7 Noroeste 17 Noroeste 0 -- -- 74
2020-09-03 03:00:00 12.8 8 Noroeste 18 Noroeste 0 -- -- 76
2020-09-03 02:00:00 14 11 Noroeste 19 Noroeste 0 -- -- 70
2020-09-03 01:00:00 15 12 Noroeste 24 Noroeste 0 -- -- 67
2020-09-03 00:00:00 15.8 11 Noroeste 26 Noroeste 0 -- -- 64
2020-09-02 23:00:00 16.3 10 Noroeste 20 Norte 0 -- -- 62
2020-09-02 22:00:00 17.2 11 Norte 36 Noroeste 0 -- -- 59
2020-09-02 21:00:00 18.5 16 Norte 34 Norte 0 -- -- 53
2020-09-02 20:00:00 20.5 13 Norte 32 Norte 0 -- -- 47
2020-09-02 19:00:00 22.4 18 Norte 36 Norte 0 -- -- 40
2020-09-02 18:00:00 23.2 21 Norte 37 Noroeste 0 -- -- 37
2020-09-02 17:00:00 23.8 16 Norte 29 Noroeste 0 -- -- 38
2020-09-02 16:00:00 23.6 17 Norte 30 Noroeste 0 -- -- 36
2020-09-02 15:00:00 23.3 14 Norte 31 Noroeste 0 -- -- 36
2020-09-02 14:00:00 22.8 14 Noroeste 30 Oeste 0 -- -- 37
2020-09-02 13:00:00 22 19 Noroeste 37 Noroeste 0 -- -- 38
2020-09-02 12:00:00 20.9 15 Norte 32 Norte 0 -- -- 43
2020-09-02 11:00:00 19.6 17 Norte 34 Noroeste 0 -- -- 47
2020-09-02 10:00:00 18 19 Noroeste 39 Noroeste 0 -- -- 54
2020-09-02 09:00:00 15.6 15 Noroeste 27 Noroeste 0 -- -- 69
2020-09-02 08:00:00 14.2 15 Noroeste 25 Noroeste 0 -- -- 72
2020-09-02 07:00:00 13 10 Noroeste 19 Noroeste 0 -- -- 80
2020-09-02 06:00:00 13.8 11 Noroeste 19 Oeste 0 -- -- 75
2020-09-02 05:00:00 14.1 7 Noroeste 19 Oeste 0 -- -- 75
2020-09-02 04:00:00 15.1 14 Oeste 22 Oeste 0 -- -- 70
2020-09-02 03:00:00 15.7 13 Noroeste 28 Noroeste 0 -- -- 71
2020-09-02 02:00:00 16.3 15 Noroeste 29 Noroeste 0 -- -- 69
2020-09-02 01:00:00 16.3 12 Norte 28 Norte 0 -- -- 71
2020-09-02 00:00:00 16.8 12 Noroeste 31 Noroeste 0 -- -- 70
2020-09-01 23:00:00 17.5 17 Noroeste 32 Noroeste 0 -- -- 68
2020-09-01 22:00:00 17.9 17 Norte 31 Noroeste 0 -- -- 65
2020-09-01 21:00:00 18.8 13 Norte 31 Noroeste 0 -- -- 58
2020-09-01 20:00:00 20.5 14 Norte 41 Norte 0 -- -- 48
2020-09-01 19:00:00 22.1 18 Norte 38 Norte 0 -- -- 43
2020-09-01 18:00:00 23.6 15 Norte 31 Nordeste 0 -- -- 36
2020-09-01 17:00:00 25.1 12 Norte 28 Norte 0 -- -- 30
2020-09-01 16:00:00 24.9 9 Norte 24 Norte 0 -- -- 32
2020-09-01 15:00:00 24 11 Norte 20 Noroeste 0 -- -- 31
2020-09-01 14:00:00 23.5 12 Norte 22 Noroeste 0 -- -- 32
2020-09-01 13:00:00 23.7 6 Sudoeste 21 Oeste 0 -- -- 33
2020-09-01 12:00:00 20.3 3 Sudoeste 15 Oeste 0 -- -- 46
2020-09-01 11:00:00 18.6 0 Calma 8 Noroeste 0 -- -- 50
2020-09-01 10:00:00 16.6 3 Norte 9 Norte 0 -- -- 58
2020-09-01 09:00:00 13.9 4 Norte 10 Noroeste 0 -- -- 67
2020-09-01 08:00:00 13.7 8 Noroeste 17 Noroeste 0 -- -- 60
2020-09-01 07:00:00 13.6 7 Noroeste 14 Noroeste 0 -- -- 61
2020-09-01 06:00:00 13.6 5 Noroeste 13 Noroeste 0 -- -- 61
2020-09-01 05:00:00 13.6 0 Calma 9 Noroeste 0 -- -- 69
2020-09-01 04:00:00 14.9 3 Noroeste 12 Noroeste 0 -- -- 63
2020-09-01 03:00:00 15.2 6 Noroeste 9 Noroeste 0 -- -- 64
2020-09-01 02:00:00 15.8 5 Noroeste 12 Noroeste 0 -- -- 61
2020-09-01 01:00:00 16.9 8 Noroeste 15 Noroeste 0 -- -- 52
2020-09-01 00:00:00 17.3 7 Noroeste 13 Noroeste 0 -- -- 51
2020-08-31 23:00:00 18.2 8 Oeste 13 Oeste 0 -- -- 48
2020-08-31 22:00:00 18.2 5 Norte 15 Norte 0 -- -- 47
2020-08-31 21:00:00 19.3 6 Norte 18 Noroeste 0 -- -- 50
2020-08-31 20:00:00 20.9 8 Norte 23 Norte 0 -- -- 45
2020-08-31 19:00:00 22.9 9 Norte 19 Norte 0 -- -- 39
2020-08-31 18:00:00 23.9 8 Norte 22 Noroeste 0 -- -- 31
2020-08-31 17:00:00 23.5 9 Noroeste 23 Oeste 0 -- -- 31
2020-08-31 16:00:00 22.7 11 Noroeste 29 Noroeste 0 -- -- 30
2020-08-31 15:00:00 21.8 10 Noroeste 23 Noroeste 0 -- -- 36
2020-08-31 14:00:00 20.4 6 Noroeste 21 Noroeste 0 -- -- 44
2020-08-31 13:00:00 19 10 Norte 25 Oeste 0 -- -- 47
2020-08-31 12:00:00 17.6 10 Noroeste 28 Noroeste 0 -- -- 53
2020-08-31 11:00:00 15.9 16 Noroeste 30 Noroeste 0 -- -- 63
2020-08-31 10:00:00 14.3 16 Noroeste 25 Oeste 0 -- -- 71
2020-08-31 09:00:00 11.9 5 Noroeste 15 Noroeste 0 -- -- 81
2020-08-31 08:00:00 10.2 7 Noroeste 17 Noroeste 0 -- -- 86
2020-08-31 07:00:00 9.8 5 Noroeste 18 Noroeste 0 -- -- 86
2020-08-31 06:00:00 9.5 2 Noroeste 13 Noroeste 0 -- -- 87
2020-08-31 05:00:00 10.1 5 Norte 13 Noroeste 0 -- -- 86
2020-08-31 04:00:00 10.9 10 Noroeste 19 Noroeste 0 -- -- 83
2020-08-31 03:00:00 11.3 13 Noroeste 21 Noroeste 0 -- -- 80
2020-08-31 02:00:00 11.7 13 Noroeste 19 Noroeste 0 -- -- 79
2020-08-31 01:00:00 12.2 13 Noroeste 22 Noroeste 0 -- -- 78
2020-08-31 00:00:00 12.7 15 Noroeste 23 Oeste 0 -- -- 76
2020-08-30 23:00:00 13.5 9 Noroeste 25 Noroeste 0 -- -- 71
2020-08-30 22:00:00 14.1 13 Noroeste 25 Noroeste 0 -- -- 67
2020-08-30 21:00:00 14.9 12 Noroeste 37 Noroeste 0 -- -- 63
2020-08-30 20:00:00 15.8 15 Norte 35 Noroeste 0 -- -- 59
2020-08-30 19:00:00 17.6 21 Norte 45 Norte 0 -- -- 55
2020-08-30 18:00:00 18.9 15 Noroeste 37 Norte 0 -- -- 51
2020-08-30 17:00:00 18.4 17 Norte 34 Noroeste 0 -- -- 54
2020-08-30 16:00:00 17 17 Norte 40 Noroeste 0 -- -- 55
2020-08-30 15:00:00 17.5 18 Noroeste 53 Noroeste 0 -- -- 57
2020-08-30 14:00:00 17.1 22 Noroeste 39 Noroeste 0 -- -- 60
2020-08-30 13:00:00 15.9 23 Noroeste 36 Oeste 0.2 -- -- 67
2020-08-30 12:00:00 16 6 Norte 34 Noroeste 0 -- -- 68
2020-08-30 11:00:00 15.3 13 Noroeste 27 Noroeste 0 -- -- 67
2020-08-30 10:00:00 12.8 10 Noroeste 14 Noroeste 0 -- -- 81
2020-08-30 09:00:00 11.1 6 Oeste 12 Oeste 0 -- -- 83
2020-08-30 08:00:00 10.1 4 Noroeste 14 Noroeste 0.2 -- -- 87
2020-08-30 07:00:00 8.9 2 Sudeste 17 Oeste 0 -- -- 91
2020-08-30 06:00:00 9.7 13 Noroeste 18 Oeste 0 -- -- 89
2020-08-30 05:00:00 10 11 Noroeste 16 Noroeste 0.2 -- -- 88
2020-08-30 04:00:00 10.3 0 Calma 15 Noroeste 0 -- -- 86
2020-08-30 03:00:00 10.2 0 Calma 8 Noroeste 0.2 -- -- 90
2020-08-30 02:00:00 11.3 7 Noroeste 21 Noroeste 0 -- -- 87
2020-08-30 01:00:00 11.9 9 Noroeste 18 Noroeste 0.4 -- -- 92
2020-08-30 00:00:00 12.3 10 Noroeste 30 Noroeste 3.2 -- -- 91
2020-08-29 23:00:00 13.5 17 Noroeste 33 Noroeste 0.6 -- -- 82
2020-08-29 22:00:00 13.7 17 Noroeste 31 Noroeste 0.6 -- -- 83
2020-08-29 21:00:00 15.3 14 Noroeste 33 Noroeste 0 -- -- 69
2020-08-29 20:00:00 17.3 24 Noroeste 43 Noroeste 0 -- -- 57
2020-08-29 19:00:00 17.3 10 Noroeste 29 Norte 0 -- -- 58
2020-08-29 18:00:00 18 18 Norte 35 Norte 0 -- -- 55
2020-08-29 17:00:00 18.4 26 Noroeste 45 Noroeste 0 -- -- 50
2020-08-29 16:00:00 18.4 17 Noroeste 38 Noroeste 0 -- -- 54
2020-08-29 15:00:00 20.5 18 Noroeste 48 Noroeste 0 -- -- 43
2020-08-29 14:00:00 19.7 23 Noroeste 45 Noroeste 0 -- -- 50
2020-08-29 13:00:00 18.8 24 Noroeste 40 Noroeste 0 -- -- 49
2020-08-29 12:00:00 17.7 21 Noroeste 35 Noroeste 0 -- -- 53
2020-08-29 11:00:00 16.5 17 Noroeste 36 Noroeste 0 -- -- 60
2020-08-29 10:00:00 16.6 17 Noroeste 31 Noroeste 0 -- -- 59
2020-08-29 09:00:00 13.6 8 Noroeste 12 Noroeste 0 -- -- 75
2020-08-29 08:00:00 10.5 2 Nordeste 10 Noroeste 0 -- -- 86
2020-08-29 07:00:00 11.8 4 Noroeste 16 Noroeste 0 -- -- 80
2020-08-29 06:00:00 12.3 8 Noroeste 15 Oeste 0 -- -- 78
2020-08-29 05:00:00 12.5 8 Noroeste 14 Oeste 0 -- -- 78
2020-08-29 04:00:00 13.3 4 Noroeste 14 Noroeste 0 -- -- 76
2020-08-29 03:00:00 13.8 9 Noroeste 17 Norte 0 -- -- 74
2020-08-29 02:00:00 14.4 7 Norte 17 Noroeste 0 -- -- 72
2020-08-29 01:00:00 15.1 10 Norte 23 Norte 0 -- -- 68
2020-08-29 00:00:00 15.2 10 Norte 28 Norte 0 -- -- 71
2020-08-28 23:00:00 15.8 10 Norte 32 Norte 0 -- -- 69
2020-08-28 22:00:00 16 15 Norte 39 Norte 0 -- -- 68
2020-08-28 21:00:00 16.7 17 Norte 35 Norte 0 -- -- 67
2020-08-28 20:00:00 16.8 14 Norte 41 Noroeste 0 -- -- 66
2020-08-28 19:00:00 17.7 18 Norte 41 Noroeste 0 -- -- 65
2020-08-28 18:00:00 19.4 21 Norte 41 Norte 0 -- -- 63
2020-08-28 17:00:00 19.7 22 Norte 42 Norte 0 -- -- 61
2020-08-28 16:00:00 18.9 19 Norte 44 Norte 0 -- -- 63
2020-08-28 15:00:00 21.2 22 Norte 40 Norte 0 -- -- 57
2020-08-28 14:00:00 22.1 22 Norte 42 Norte 0 -- -- 58
2020-08-28 13:00:00 21 19 Norte 41 Norte 0 -- -- 58
2020-08-28 12:00:00 21.6 19 Noroeste 39 Noroeste 0 -- -- 60
2020-08-28 11:00:00 20.8 20 Noroeste 42 Noroeste 0 -- -- 65
2020-08-28 10:00:00 20.8 18 Noroeste 35 Noroeste 0 -- -- 71
2020-08-28 09:00:00 21.3 10 Noroeste 22 Noroeste 0 -- -- 73
2020-08-28 08:00:00 20.4 12 Noroeste 24 Noroeste 0 -- -- 76
2020-08-28 07:00:00 20.5 10 Noroeste 23 Noroeste 0 -- -- 74
2020-08-28 06:00:00 20.5 13 Noroeste 24 Noroeste 0 -- -- 74
2020-08-28 05:00:00 20.6 11 Noroeste 21 Noroeste 0 -- -- 71
2020-08-28 04:00:00 20.1 12 Noroeste 24 Noroeste 0 -- -- 76
2020-08-28 03:00:00 20.6 13 Noroeste 22 Noroeste 0 -- -- 74
2020-08-28 02:00:00 21.2 12 Noroeste 27 Noroeste 0 -- -- 71
2020-08-28 01:00:00 21.5 13 Noroeste 27 Noroeste 0 -- -- 71
2020-08-28 00:00:00 21.6 16 Noroeste 27 Noroeste 0 -- -- 71